createdAt,value
2022-09-06T00:01:42.369Z,15.51
2022-09-06T00:04:14.524Z,15.52
2022-09-06T00:06:42.221Z,15.54
2022-09-06T00:09:09.137Z,15.55
2022-09-06T00:11:38.104Z,15.57
2022-09-06T00:14:05.562Z,15.58
2022-09-06T00:16:33.260Z,15.58
2022-09-06T00:19:01.599Z,15.58
2022-09-06T00:21:30.797Z,15.58
2022-09-06T00:23:57.776Z,15.59
2022-09-06T00:26:24.815Z,15.59
2022-09-06T00:28:51.778Z,15.59
2022-09-06T00:31:22.360Z,15.56
2022-09-06T00:33:50.288Z,15.54
2022-09-06T00:36:18.107Z,15.52
2022-09-06T00:38:45.455Z,15.50
2022-09-06T00:41:14.052Z,15.48
2022-09-06T00:43:41.907Z,15.45
2022-09-06T00:46:11.713Z,15.43
2022-09-06T00:48:41.228Z,15.40
2022-09-06T00:51:12.779Z,15.38
2022-09-06T00:53:39.679Z,15.35
2022-09-06T00:56:06.982Z,15.33
2022-09-06T00:58:34.440Z,15.32
2022-09-06T01:01:01.383Z,15.30
2022-09-06T01:03:29.957Z,15.28
2022-09-06T01:05:56.698Z,15.26
2022-09-06T01:08:45.354Z,15.24
2022-09-06T01:11:21.123Z,15.22
2022-09-06T01:14:12.282Z,15.19
2022-09-06T01:16:50.847Z,15.15
2022-09-06T01:19:40.145Z,15.13
2022-09-06T01:22:40.850Z,15.10
2022-09-06T01:25:18.540Z,15.04
2022-09-06T01:28:04.232Z,15.03
2022-09-06T01:30:35.919Z,15.02
2022-09-06T01:33:07.848Z,15.00
2022-09-06T01:35:51.585Z,14.98
2022-09-06T01:38:18.835Z,14.96
2022-09-06T01:40:45.680Z,14.94
2022-09-06T01:43:30.549Z,14.86
2022-09-06T01:46:08.897Z,14.90
2022-09-06T01:49:05.090Z,14.80
2022-09-06T01:51:43.837Z,14.85
2022-09-06T01:54:32.871Z,14.82
2022-09-06T01:57:05.713Z,14.80
2022-09-06T01:59:44.559Z,14.79
2022-09-06T02:02:14.540Z,14.79
2022-09-06T02:04:46.769Z,14.75
2022-09-06T02:07:22.413Z,14.72
2022-09-06T02:10:07.690Z,14.68
2022-09-06T02:12:39.245Z,14.63
2022-09-06T02:15:22.171Z,14.61
2022-09-06T02:17:58.640Z,14.60
2022-09-06T02:20:32.950Z,14.58
2022-09-06T02:23:03.462Z,14.56
2022-09-06T02:25:49.950Z,14.53
2022-09-06T02:28:17.438Z,14.50
2022-09-06T02:30:53.018Z,14.47
2022-09-06T02:33:22.983Z,14.46
2022-09-06T02:35:52.160Z,14.44
2022-09-06T02:38:23.646Z,14.43
2022-09-06T02:40:53.244Z,14.44
2022-09-06T02:43:21.440Z,14.46
2022-09-06T02:45:48.730Z,14.48
2022-09-06T02:48:15.836Z,14.49
2022-09-06T02:50:42.894Z,14.50
2022-09-06T02:53:12.600Z,14.50
2022-09-06T02:55:39.907Z,14.51
2022-09-06T02:58:11.101Z,14.50
2022-09-06T03:00:38.652Z,14.48
2022-09-06T03:03:05.801Z,14.48
2022-09-06T03:05:33.161Z,14.48
2022-09-06T03:08:00.327Z,14.47
2022-09-06T03:10:27.295Z,14.47
2022-09-06T03:12:54.209Z,14.45
2022-09-06T03:15:21.761Z,14.44
2022-09-06T03:17:48.813Z,14.44
2022-09-06T03:20:15.693Z,14.41
2022-09-06T03:22:42.697Z,14.40
2022-09-06T03:25:10.299Z,14.38
2022-09-06T03:27:37.974Z,14.36
2022-09-06T03:30:06.930Z,14.35
2022-09-06T03:32:34.274Z,14.33
2022-09-06T03:35:01.322Z,14.32
2022-09-06T03:37:28.258Z,14.31
2022-09-06T03:39:55.094Z,14.30
2022-09-06T03:42:22.249Z,14.29
2022-09-06T03:44:49.191Z,14.30
2022-09-06T03:47:19.603Z,14.29
2022-09-06T03:49:47.692Z,14.29
2022-09-06T03:52:15.052Z,14.29
2022-09-06T03:54:42.303Z,14.28
2022-09-06T03:57:10.699Z,14.28
2022-09-06T03:59:37.830Z,14.26
2022-09-06T04:02:06.039Z,14.19
2022-09-06T04:04:33.054Z,14.24
2022-09-06T04:07:00.105Z,14.21
2022-09-06T04:09:27.144Z,14.18
2022-09-06T04:11:54.098Z,14.16
2022-09-06T04:14:21.138Z,14.15
2022-09-06T04:16:48.451Z,14.15
2022-09-06T04:19:15.851Z,14.14
2022-09-06T04:21:42.698Z,14.14
2022-09-06T04:24:09.538Z,14.15
2022-09-06T04:26:36.578Z,14.16
2022-09-06T04:29:03.674Z,14.16
2022-09-06T04:31:30.714Z,14.18
2022-09-06T04:33:57.833Z,14.18
2022-09-06T04:36:24.870Z,14.20
2022-09-06T04:38:51.923Z,14.20
2022-09-06T04:41:18.854Z,14.21
2022-09-06T04:43:45.919Z,14.23
2022-09-06T04:46:24.841Z,14.23
2022-09-06T04:48:53.222Z,14.24
2022-09-06T04:51:21.155Z,14.25
2022-09-06T04:53:48.320Z,14.26
2022-09-06T04:56:18.158Z,14.27
2022-09-06T04:58:46.752Z,14.30
2022-09-06T05:01:14.233Z,14.33
2022-09-06T05:03:41.558Z,14.36
2022-09-06T05:06:10.053Z,14.39
2022-09-06T05:08:41.283Z,14.42
2022-09-06T05:11:09.113Z,14.45
2022-09-06T05:13:37.005Z,14.42
2022-09-06T05:16:07.083Z,14.51
2022-09-06T05:18:34.558Z,14.55
2022-09-06T05:21:02.205Z,14.58
2022-09-06T05:23:30.489Z,14.62
2022-09-06T05:25:57.432Z,14.66
2022-09-06T05:28:24.998Z,14.69
2022-09-06T05:30:52.350Z,14.71
2022-09-06T05:33:21.767Z,14.74
2022-09-06T05:35:49.310Z,14.76
2022-09-06T05:38:16.364Z,14.78
2022-09-06T05:40:43.649Z,14.80
2022-09-06T05:43:10.548Z,14.77
2022-09-06T05:45:37.550Z,14.86
2022-09-06T05:48:04.661Z,14.88
2022-09-06T05:50:32.343Z,14.90
2022-09-06T05:52:59.669Z,14.94
2022-09-06T05:55:27.434Z,14.97
2022-09-06T05:57:54.278Z,15.01
2022-09-06T06:00:21.324Z,15.04
2022-09-06T06:02:49.730Z,15.06
2022-09-06T06:05:16.952Z,15.09
2022-09-06T06:07:44.630Z,15.11
2022-09-06T06:10:12.027Z,15.13
2022-09-06T06:12:38.964Z,15.14
2022-09-06T06:15:06.474Z,15.13
2022-09-06T06:17:34.451Z,15.14
2022-09-06T06:20:02.838Z,15.16
2022-09-06T06:22:29.991Z,15.16
2022-09-06T06:24:57.149Z,15.17
2022-09-06T06:27:24.320Z,15.15
2022-09-06T06:29:52.981Z,15.14
2022-09-06T06:32:20.846Z,15.14
2022-09-06T06:34:47.898Z,15.13
2022-09-06T06:37:15.554Z,15.15
2022-09-06T06:39:43.728Z,15.16
2022-09-06T06:42:12.054Z,15.18
2022-09-06T06:44:46.442Z,15.21
2022-09-06T06:47:14.734Z,15.24
2022-09-06T06:49:43.090Z,15.27
2022-09-06T06:52:11.481Z,15.28
2022-09-06T06:54:39.473Z,15.32
2022-09-06T06:57:09.040Z,15.35
2022-09-06T06:59:36.189Z,15.36
2022-09-06T07:02:03.413Z,15.38
2022-09-06T07:04:30.699Z,15.41
2022-09-06T07:12:33.627Z,15.58
2022-09-06T07:15:00.984Z,15.65
2022-09-06T07:17:28.226Z,15.70
2022-09-06T07:22:40.572Z,15.81
2022-09-06T07:25:09.951Z,15.85
2022-09-06T07:27:53.070Z,15.88
2022-09-06T07:30:21.152Z,15.91
2022-09-06T07:32:48.840Z,15.93
2022-09-06T07:35:17.262Z,15.95
2022-09-06T07:37:55.498Z,15.97
2022-09-06T07:40:28.439Z,15.99
2022-09-06T07:43:00.373Z,15.95
2022-09-06T07:45:27.604Z,16.02
2022-09-06T07:48:01.457Z,16.04
2022-09-06T07:50:46.372Z,16.06
2022-09-06T07:53:23.016Z,16.00
2022-09-06T07:56:00.901Z,16.09
2022-09-06T07:58:30.366Z,16.06
2022-09-06T08:01:30.752Z,16.19
2022-09-06T08:04:05.385Z,16.29
2022-09-06T08:09:23.772Z,16.44
2022-09-06T08:11:52.366Z,16.54
2022-09-06T08:14:20.371Z,16.64
2022-09-06T08:16:49.178Z,16.89
2022-09-06T08:19:18.541Z,17.05
2022-09-06T08:21:46.001Z,17.15
2022-09-06T08:24:14.246Z,17.23
2022-09-06T08:26:44.491Z,17.26
2022-09-06T08:29:13.357Z,17.36
2022-09-06T08:31:43.634Z,17.42
2022-09-06T08:34:12.328Z,17.48
2022-09-06T08:36:40.865Z,17.61
2022-09-06T08:39:09.940Z,17.74
2022-09-06T08:41:41.056Z,17.80
2022-09-06T08:47:14.898Z,17.93
2022-09-06T08:49:55.132Z,18.01
2022-09-06T08:52:26.958Z,18.11
2022-09-06T08:55:03.800Z,18.20
2022-09-06T08:58:01.964Z,18.29
2022-09-06T09:00:31.732Z,18.39
2022-09-06T09:03:38.938Z,18.50
2022-09-06T09:06:09.811Z,18.64
2022-09-06T09:08:52.648Z,18.71
2022-09-06T09:11:23.134Z,18.79
2022-09-06T09:13:55.905Z,18.88
2022-09-06T09:16:23.868Z,18.95
2022-09-06T09:18:58.501Z,18.99
2022-09-06T09:21:30.640Z,19.06
2022-09-06T09:24:09.863Z,19.11
2022-09-06T09:27:13.389Z,19.16
2022-09-06T09:32:55.559Z,19.21
2022-09-06T09:35:40.466Z,19.21
2022-09-06T09:38:12.408Z,19.25
2022-09-06T09:40:51.695Z,19.29
2022-09-06T09:43:39.730Z,19.33
2022-09-06T09:46:28.452Z,19.44
2022-09-06T09:49:07.783Z,19.52
2022-09-06T09:51:42.145Z,19.60
2022-09-06T09:54:14.884Z,19.65
2022-09-06T09:56:52.699Z,19.75
2022-09-06T09:59:22.744Z,19.85
2022-09-06T10:01:52.583Z,19.93
2022-09-06T10:04:44.974Z,20.03
2022-09-06T10:07:17.297Z,20.11
2022-09-06T10:09:57.401Z,20.06
2022-09-06T10:12:44.465Z,20.24
2022-09-06T10:15:33.449Z,20.35
2022-09-06T10:18:00.606Z,20.43
2022-09-06T10:21:00.366Z,20.38
2022-09-06T10:26:46.088Z,20.56
2022-09-06T10:29:14.284Z,20.68
2022-09-06T10:31:53.573Z,20.77
2022-09-06T10:34:29.544Z,20.84
2022-09-06T10:37:21.166Z,20.85
2022-09-06T10:40:00.662Z,21.01
2022-09-06T10:42:48.036Z,21.09
2022-09-06T10:45:16.913Z,21.18
2022-09-06T10:47:56.998Z,21.31
2022-09-06T10:50:38.295Z,21.40
2022-09-06T10:53:16.044Z,21.41
2022-09-06T10:55:48.684Z,21.40
2022-09-06T10:58:25.961Z,21.41
2022-09-06T11:00:55.282Z,21.42
2022-09-06T11:03:57.002Z,21.44
2022-09-06T11:06:32.414Z,21.52
2022-09-06T11:09:16.737Z,21.55
2022-09-06T11:11:49.753Z,21.52
2022-09-06T11:14:20.911Z,21.47
2022-09-06T11:16:55.111Z,21.45
2022-09-06T11:19:29.302Z,21.45
2022-09-06T11:22:45.237Z,21.44
2022-09-06T11:25:35.662Z,21.44
2022-09-06T11:28:09.926Z,21.46
2022-09-06T11:30:50.066Z,21.48
2022-09-06T11:33:24.186Z,21.53
2022-09-06T11:35:53.913Z,21.58
2022-09-06T11:38:26.714Z,21.64
2022-09-06T11:41:01.403Z,21.69
2022-09-06T11:43:48.450Z,21.75
2022-09-06T11:46:33.799Z,21.84
2022-09-06T11:49:15.988Z,21.94
2022-09-06T11:51:44.965Z,22.03
2022-09-06T11:54:15.145Z,22.05
2022-09-06T11:56:57.739Z,22.08
2022-09-06T11:59:48.163Z,22.09
2022-09-06T12:02:35.452Z,22.12
2022-09-06T12:05:07.093Z,22.15
2022-09-06T12:07:58.642Z,22.18
2022-09-06T12:10:29.268Z,22.22
2022-09-06T12:12:58.737Z,22.27
2022-09-06T12:15:32.706Z,22.36
2022-09-06T12:18:00.957Z,22.45
2022-09-06T12:20:54.646Z,22.50
2022-09-06T12:23:34.171Z,22.57
2022-09-06T12:26:11.556Z,22.60
2022-09-06T12:28:51.723Z,22.65
2022-09-06T12:31:29.319Z,22.68
2022-09-06T12:33:58.735Z,22.71
2022-09-06T12:36:30.665Z,22.75
2022-09-06T12:39:09.860Z,22.81
2022-09-06T12:41:45.619Z,22.86
2022-09-06T12:44:15.929Z,22.85
2022-09-06T12:46:51.707Z,22.84
2022-09-06T12:49:23.269Z,22.81
2022-09-06T12:51:51.734Z,22.81
2022-09-06T12:54:23.577Z,22.83
2022-09-06T12:56:53.114Z,22.84
2022-09-06T12:59:24.766Z,22.88
2022-09-06T13:01:58.282Z,22.96
2022-09-06T13:04:49.581Z,23.01
2022-09-06T13:07:20.274Z,23.05
2022-09-06T13:09:51.753Z,23.10
2022-09-06T13:12:39.073Z,23.12
2022-09-06T13:15:14.499Z,23.22
2022-09-06T13:17:43.387Z,23.22
2022-09-06T13:20:30.199Z,23.19
2022-09-06T13:23:13.587Z,23.16
2022-09-06T13:25:52.046Z,23.15
2022-09-06T13:28:29.570Z,23.17
2022-09-06T13:31:22.118Z,23.20
2022-09-06T13:33:57.532Z,23.25
2022-09-06T13:36:30.317Z,23.28
2022-09-06T13:38:59.373Z,23.29
2022-09-06T13:41:26.963Z,23.35
2022-09-06T13:43:57.912Z,23.40
2022-09-06T13:46:25.272Z,23.42
2022-09-06T13:48:56.091Z,23.40
2022-09-06T13:51:24.163Z,23.35
2022-09-06T13:53:51.218Z,23.33
2022-09-06T13:56:19.182Z,23.32
2022-09-06T13:58:46.453Z,23.30
2022-09-06T14:01:14.413Z,23.26
2022-09-06T14:03:42.486Z,23.22
2022-09-06T14:06:10.041Z,23.18
2022-09-06T14:09:03.307Z,23.15
2022-09-06T14:11:26.553Z,23.12
2022-09-06T14:13:53.545Z,23.10
2022-09-06T14:16:20.867Z,23.08
2022-09-06T14:18:48.280Z,23.07
2022-09-06T14:21:16.041Z,23.07
2022-09-06T14:23:43.031Z,23.08
2022-09-06T14:26:11.611Z,23.08
2022-09-06T14:28:39.701Z,23.05
2022-09-06T14:31:34.054Z,23.03
2022-09-06T14:34:01.922Z,23.02
2022-09-06T14:36:31.002Z,23.00
2022-09-06T14:38:59.733Z,22.98
2022-09-06T14:41:27.592Z,22.94
2022-09-06T14:43:56.982Z,22.95
2022-09-06T14:46:26.146Z,22.94
2022-09-06T14:48:58.253Z,22.92
2022-09-06T14:51:25.710Z,22.91
2022-09-06T14:53:56.524Z,22.91
2022-09-06T14:56:24.380Z,22.87
2022-09-06T14:58:51.669Z,22.83
2022-09-06T15:01:22.870Z,22.78
2022-09-06T15:03:55.183Z,22.74
2022-09-06T15:06:24.727Z,22.71
2022-09-06T15:08:57.042Z,22.69
2022-09-06T15:11:33.818Z,22.65
2022-09-06T15:14:03.783Z,22.61
2022-09-06T15:16:32.790Z,22.55
2022-09-06T15:19:02.552Z,22.51
2022-09-06T15:21:31.590Z,22.47
2022-09-06T15:24:00.152Z,22.43
2022-09-06T15:26:28.336Z,22.37
2022-09-06T15:28:56.300Z,22.32
2022-09-06T15:31:25.230Z,22.25
2022-09-06T15:33:53.562Z,22.18
2022-09-06T15:36:22.345Z,22.13
2022-09-06T15:38:51.744Z,22.07
2022-09-06T15:41:24.878Z,22.02
2022-09-06T15:43:58.192Z,21.97
2022-09-06T15:46:34.349Z,21.94
2022-09-06T15:49:05.634Z,21.89
2022-09-06T15:51:35.708Z,21.83
2022-09-06T15:54:03.237Z,21.80
2022-09-06T15:56:31.332Z,21.75
2022-09-06T15:58:59.619Z,21.70
2022-09-06T16:01:28.749Z,21.64
2022-09-06T16:04:04.000Z,21.57
2022-09-06T16:06:35.422Z,21.50
2022-09-06T16:09:06.799Z,21.44
2022-09-06T16:11:36.317Z,21.40
2022-09-06T16:14:05.601Z,21.34
2022-09-06T16:16:34.258Z,21.29
2022-09-06T16:19:02.167Z,21.24
2022-09-06T16:21:32.056Z,21.19
2022-09-06T16:24:02.137Z,21.15
2022-09-06T16:26:31.996Z,21.12
2022-09-06T16:29:00.655Z,21.09
2022-09-06T16:31:28.465Z,21.07
2022-09-06T16:33:57.444Z,21.03
2022-09-06T16:36:25.921Z,20.99
2022-09-06T16:38:54.510Z,20.95
2022-09-06T16:41:31.901Z,20.91
2022-09-06T16:43:59.000Z,20.85
2022-09-06T16:46:28.516Z,20.81
2022-09-06T16:48:57.833Z,20.76
2022-09-06T16:51:26.171Z,20.71
2022-09-06T16:53:54.303Z,20.65
2022-09-06T16:56:24.744Z,20.59
2022-09-06T16:58:56.803Z,20.54
2022-09-06T17:01:30.090Z,20.48
2022-09-06T17:04:01.565Z,20.42
2022-09-06T17:06:29.978Z,20.36
2022-09-06T17:09:00.146Z,20.30
2022-09-06T17:11:28.724Z,20.24
2022-09-06T17:13:57.598Z,20.18
2022-09-06T17:16:44.693Z,20.11
2022-09-06T17:19:13.628Z,20.04
2022-09-06T17:21:40.569Z,19.98
2022-09-06T17:24:08.190Z,19.93
2022-09-06T17:26:38.304Z,19.89
2022-09-06T17:29:05.830Z,19.84
2022-09-06T17:31:33.941Z,19.80
2022-09-06T17:34:02.190Z,19.75
2022-09-06T17:36:31.839Z,19.70
2022-09-06T17:39:02.142Z,19.64
2022-09-06T17:41:40.392Z,19.58
2022-09-06T17:44:10.913Z,19.52
2022-09-06T17:46:47.612Z,19.46
2022-09-06T17:49:19.681Z,19.41
2022-09-06T17:51:47.448Z,19.35
2022-09-06T17:54:16.769Z,19.31
2022-09-06T17:56:44.522Z,19.27
2022-09-06T17:59:14.066Z,19.23
2022-09-06T18:01:44.530Z,19.19
2022-09-06T18:04:18.137Z,19.13
2022-09-06T18:06:47.461Z,19.08
2022-09-06T18:09:17.665Z,19.05
2022-09-06T18:11:46.693Z,19.00
2022-09-06T18:14:20.945Z,18.96
2022-09-06T18:16:51.653Z,18.92
2022-09-06T18:19:19.002Z,18.88
2022-09-06T18:21:47.265Z,18.85
2022-09-06T18:24:18.425Z,18.81
2022-09-06T18:26:50.118Z,18.78
2022-09-06T18:29:18.970Z,18.74
2022-09-06T18:31:48.103Z,18.69
2022-09-06T18:34:17.758Z,18.64
2022-09-06T18:36:45.818Z,18.42
2022-09-06T18:39:14.467Z,18.56
2022-09-06T18:42:00.988Z,18.53
2022-09-06T18:44:32.313Z,18.50
2022-09-06T18:47:02.779Z,18.47
2022-09-06T18:49:30.619Z,18.44
2022-09-06T18:51:58.312Z,18.43
2022-09-06T18:54:25.548Z,18.41
2022-09-06T18:56:52.779Z,18.39
2022-09-06T18:59:21.197Z,18.37
2022-09-06T19:01:51.044Z,18.35
2022-09-06T19:04:19.974Z,18.33
2022-09-06T19:06:48.204Z,18.33
2022-09-06T19:09:17.144Z,18.31
2022-09-06T19:11:52.481Z,18.30
2022-09-06T19:14:22.015Z,18.29
2022-09-06T19:16:53.586Z,18.26
2022-09-06T19:19:22.839Z,18.27
2022-09-06T19:21:50.306Z,18.26
2022-09-06T19:24:22.598Z,18.25
2022-09-06T19:26:51.769Z,18.24
2022-09-06T19:29:20.251Z,18.22
2022-09-06T19:31:49.287Z,18.20
2022-09-06T19:34:19.282Z,18.18
2022-09-06T19:36:50.055Z,18.16
2022-09-06T19:39:19.191Z,18.13
2022-09-06T19:41:47.945Z,18.12
2022-09-06T19:44:17.154Z,18.10
2022-09-06T19:46:47.623Z,18.08
2022-09-06T19:49:19.010Z,18.06
2022-09-06T19:51:50.148Z,18.04
2022-09-06T19:54:20.515Z,18.01
2022-09-06T19:56:49.304Z,17.98
2022-09-06T19:59:17.840Z,17.96
2022-09-06T20:01:47.459Z,17.93
2022-09-06T20:04:16.815Z,17.91
2022-09-06T20:06:45.824Z,17.88
2022-09-06T20:09:15.663Z,17.86
2022-09-06T20:11:43.825Z,17.83
2022-09-06T20:14:12.291Z,17.81
2022-09-06T20:16:42.469Z,17.79
2022-09-06T20:19:14.277Z,17.76
2022-09-06T20:21:43.184Z,17.73
2022-09-06T20:24:10.906Z,17.70
2022-09-06T20:26:38.772Z,17.66
2022-09-06T20:29:07.944Z,17.63
2022-09-06T20:31:37.043Z,17.61
2022-09-06T20:34:06.050Z,17.59
2022-09-06T20:36:33.300Z,17.55
2022-09-06T20:39:01.735Z,17.52
2022-09-06T20:41:29.662Z,17.48
2022-09-06T20:43:59.110Z,17.45
2022-09-06T20:46:29.610Z,17.41
2022-09-06T20:48:59.317Z,17.38
2022-09-06T20:51:26.542Z,17.34
2022-09-06T20:53:58.740Z,17.32
2022-09-06T20:56:36.224Z,17.29
2022-09-06T20:59:08.579Z,17.25
2022-09-06T21:01:40.489Z,17.22
2022-09-06T21:04:10.093Z,17.19
2022-09-06T21:06:40.319Z,17.17
2022-09-06T21:09:12.945Z,17.15
2022-09-06T21:11:42.045Z,17.13
2022-09-06T21:14:10.471Z,17.09
2022-09-06T21:16:38.605Z,17.07
2022-09-06T21:19:09.207Z,17.05
2022-09-06T21:21:37.880Z,17.02
2022-09-06T21:24:07.581Z,17.00
2022-09-06T21:26:35.213Z,16.97
2022-09-06T21:29:03.596Z,16.95
2022-09-06T21:31:33.909Z,16.93
2022-09-06T21:34:11.473Z,16.90
2022-09-06T21:36:42.437Z,16.86
2022-09-06T21:39:12.441Z,16.82
2022-09-06T21:41:42.381Z,16.78
2022-09-06T21:44:11.516Z,16.76
2022-09-06T21:46:39.575Z,16.74
2022-09-06T21:49:11.810Z,16.71
2022-09-06T21:51:39.023Z,16.71
2022-09-06T21:54:06.293Z,16.69
2022-09-06T21:56:35.319Z,16.67
2022-09-06T21:59:04.151Z,16.66
2022-09-06T22:01:33.695Z,16.65
2022-09-06T22:04:01.835Z,16.64
2022-09-06T22:06:30.856Z,16.63
2022-09-06T22:08:59.624Z,16.62
2022-09-06T22:11:29.484Z,16.62
2022-09-06T22:14:01.637Z,16.61
2022-09-06T22:16:30.679Z,16.59
2022-09-06T22:18:57.838Z,16.57
2022-09-06T22:21:24.706Z,16.56
2022-09-06T22:24:00.140Z,16.55
2022-09-06T22:26:29.556Z,16.54
2022-09-06T22:29:02.420Z,16.52
2022-09-06T22:31:30.806Z,16.51
2022-09-06T22:33:58.283Z,16.49
2022-09-06T22:36:26.012Z,16.49
2022-09-06T22:38:57.139Z,16.46
2022-09-06T22:41:29.838Z,16.43
2022-09-06T22:43:59.862Z,16.42
2022-09-06T22:46:27.449Z,16.39
2022-09-06T22:48:55.180Z,16.37
2022-09-06T22:51:22.448Z,16.34
2022-09-06T22:53:49.470Z,16.32
2022-09-06T22:56:16.242Z,16.31
2022-09-06T22:58:43.373Z,16.30
2022-09-06T23:01:12.732Z,16.27
2022-09-06T23:03:42.580Z,16.28
2022-09-06T23:06:10.258Z,16.27
2022-09-06T23:08:38.806Z,16.27
2022-09-06T23:11:11.226Z,16.26
2022-09-06T23:13:42.955Z,16.26
2022-09-06T23:16:16.465Z,16.26
2022-09-06T23:18:44.544Z,16.24
2022-09-06T23:21:13.836Z,16.24
2022-09-06T23:23:41.290Z,16.23
2022-09-06T23:26:11.418Z,16.22
2022-09-06T23:28:38.759Z,16.22
2022-09-06T23:31:07.895Z,16.20
2022-09-06T23:33:36.389Z,16.19
2022-09-06T23:36:06.223Z,16.19
2022-09-06T23:38:35.138Z,16.17
2022-09-06T23:41:03.331Z,16.16
2022-09-06T23:43:30.784Z,16.16
2022-09-06T23:45:58.231Z,16.16
2022-09-06T23:48:25.380Z,16.14
2022-09-06T23:50:52.344Z,16.14
2022-09-06T23:53:19.265Z,16.13
2022-09-06T23:55:46.253Z,16.13
2022-09-06T23:58:13.368Z,16.13
